Time;durP1;ratioP1;P1;durP2;ratioP2;P2;SDS_P1;SDS_P2;PMS_P1;PMS_P2;Temp;Humidity;BMP_temperature;BMP_pressure;BME280_temperature;BME280_humidity;BME280_pressure;Samples;Min_cycle;Max_cycle;Signal;HPM_P1;HPM_P2
2023/05/05 00:00:32;;;;;;;;;;;13.70;99.90;;;;;;5102610;27;19935;-77
2023/05/05 00:02:58;;;;;;;;;;;13.50;99.90;;;;;;5086543;27;19939;-76
2023/05/05 00:05:24;;;;;;;;;;;13.60;99.90;;;;;;5105636;27;20004;-77
2023/05/05 00:07:49;;;;;;;;;;;13.60;99.90;;;;;;5079255;27;19931;-77
2023/05/05 00:10:15;;;;;;;;;;;13.60;99.90;;;;;;5109877;28;19928;-77
2023/05/05 00:12:41;;;;;;;;;;;13.50;99.90;;;;;;5108207;27;19934;-76
2023/05/05 00:15:06;;;;;;;;;;;13.50;99.90;;;;;;5106043;27;19932;-76
2023/05/05 00:17:32;;;;;;;;;;;13.20;99.90;;;;;;5107003;27;20612;-76
2023/05/05 00:19:58;;;;;;;;;;;13.40;99.90;;;;;;5107146;27;20014;-77
2023/05/05 00:22:24;;;;;;;;;;;13.30;99.90;;;;;;5107569;27;19935;-77
2023/05/05 00:24:50;;;;;;;;;;;13.30;99.90;;;;;;5109254;27;20020;-77
2023/05/05 00:27:15;;;;;;;;;;;13.40;99.90;;;;;;5107813;27;20019;-76
2023/05/05 00:29:41;;;;;;;;;;;13.30;99.90;;;;;;5107878;27;19954;-76
2023/05/05 00:32:06;;;;;;;;;;;13.50;99.90;;;;;;5091407;28;19946;-76
2023/05/05 00:34:32;;;;;;;;;;;13.40;99.90;;;;;;5094055;27;19930;-76
2023/05/05 00:36:57;;;;;;;;;;;13.40;99.90;;;;;;5097266;27;20236;-77
2023/05/05 00:39:23;;;;;;;;;;;13.40;99.90;;;;;;5121962;27;20299;-77
2023/05/05 00:41:48;;;;;;;;;;;13.40;99.90;;;;;;5099899;27;20269;-77
2023/05/05 00:44:14;;;;;;;;;;;13.30;99.90;;;;;;5096682;27;20692;-78
2023/05/05 00:46:40;;;;;;;;;;;13.20;99.90;;;;;;5115721;27;19927;-78
2023/05/05 00:49:06;;;;;;;;;;;13.30;99.90;;;;;;5113028;27;22491;-78
2023/05/05 00:51:31;;;;;;;;;;;13.30;99.90;;;;;;5094772;27;19939;-77
2023/05/05 00:53:57;;;;;;;;;;;13.20;99.90;;;;;;5103340;27;19980;-77
2023/05/05 00:56:23;;;;;;;;;;;13.30;99.90;;;;;;5081370;27;20388;-78
2023/05/05 00:58:49;;;;;;;;;;;13.30;99.90;;;;;;5115466;27;20389;-77
2023/05/05 01:01:15;;;;;;;;;;;13.30;99.90;;;;;;5089238;27;20241;-78
2023/05/05 01:03:40;;;;;;;;;;;13.30;99.90;;;;;;5096320;27;19924;-77
2023/05/05 01:06:25;;;;;;;;;;;13.30;99.90;;;;;;5096809;27;20388;-77
2023/05/05 01:09:00;;;;;;;;;;;13.30;99.90;;;;;;5100139;27;20548;-77
2023/05/05 01:11:46;;;;;;;;;;;13.20;99.90;;;;;;5098593;27;19980;-77
2023/05/05 01:14:16;;;;;;;;;;;13.20;99.90;;;;;;5094593;27;19938;-77
2023/05/05 01:16:51;;;;;;;;;;;13.20;99.90;;;;;;5101812;27;19927;-77
2023/05/05 01:19:36;;;;;;;;;;;13.20;99.90;;;;;;5082596;27;20324;-78
2023/05/05 01:22:05;;;;;;;;;;;13.20;99.90;;;;;;5114038;27;19924;-78
2023/05/05 01:24:50;;;;;;;;;;;13.20;99.90;;;;;;5117410;27;19932;-78
2023/05/05 01:27:29;;;;;;;;;;;13.10;99.90;;;;;;5083287;27;20017;-78
2023/05/05 01:29:54;;;;;;;;;;;13.10;99.90;;;;;;5097520;27;19961;-77
2023/05/05 01:32:28;;;;;;;;;;;13.10;99.90;;;;;;5096423;27;20546;-77
2023/05/05 01:34:53;;;;;;;;;;;13.10;99.90;;;;;;5100924;27;19932;-77
2023/05/05 01:37:25;;;;;;;;;;;13.20;99.90;;;;;;5112022;27;20000;-77
2023/05/05 01:39:54;;;;;;;;;;;13.10;99.90;;;;;;5101700;27;19927;-77
2023/05/05 01:42:21;;;;;;;;;;;13.20;99.90;;;;;;5120133;27;19920;-77
2023/05/05 01:44:47;;;;;;;;;;;13.10;99.90;;;;;;5100925;27;19923;-77
2023/05/05 01:47:14;;;;;;;;;;;13.10;99.90;;;;;;5096875;27;19938;-77
2023/05/05 01:49:41;;;;;;;;;;;13.10;99.90;;;;;;5095261;27;19928;-77
2023/05/05 01:52:08;;;;;;;;;;;13.00;99.90;;;;;;5099975;27;20350;-77
2023/05/05 01:54:34;;;;;;;;;;;13.00;99.90;;;;;;5062135;27;19927;-77
2023/05/05 01:57:02;;;;;;;;;;;13.00;99.90;;;;;;5080233;27;19947;-77
2023/05/05 01:59:27;;;;;;;;;;;13.00;99.90;;;;;;5080822;27;19939;-77
2023/05/05 02:01:54;;;;;;;;;;;12.90;99.90;;;;;;5097911;27;19927;-77
2023/05/05 02:04:21;;;;;;;;;;;12.90;99.90;;;;;;5060747;27;19931;-76
2023/05/05 02:06:50;;;;;;;;;;;12.80;99.90;;;;;;5096991;27;19932;-76
2023/05/05 02:09:16;;;;;;;;;;;12.90;99.90;;;;;;5100370;27;19927;-76
2023/05/05 02:11:42;;;;;;;;;;;12.80;99.90;;;;;;5085322;27;19924;-76
2023/05/05 02:14:08;;;;;;;;;;;12.80;99.90;;;;;;5102334;27;19976;-76
2023/05/05 02:16:35;;;;;;;;;;;12.70;99.90;;;;;;5099574;27;20844;-76
2023/05/05 02:19:03;;;;;;;;;;;12.60;99.90;;;;;;5085470;27;19935;-76
2023/05/05 02:21:30;;;;;;;;;;;12.60;99.90;;;;;;5086514;27;20011;-76
2023/05/05 02:23:56;;;;;;;;;;;12.60;99.90;;;;;;5086025;27;20384;-76
2023/05/05 02:26:22;;;;;;;;;;;12.60;99.90;;;;;;5094804;27;19976;-76
2023/05/05 02:28:47;;;;;;;;;;;12.40;99.90;;;;;;5099915;27;20738;-76
2023/05/05 02:31:15;;;;;;;;;;;12.40;99.90;;;;;;5094066;27;20018;-76
2023/05/05 02:33:41;;;;;;;;;;;12.30;99.90;;;;;;5093590;27;19935;-76
2023/05/05 02:36:11;;;;;;;;;;;12.20;99.90;;;;;;5095223;27;19980;-76
2023/05/05 02:38:39;;;;;;;;;;;12.20;99.90;;;;;;5095995;27;19967;-76
2023/05/05 02:41:06;;;;;;;;;;;12.30;99.90;;;;;;5098956;27;20010;-76
2023/05/05 02:43:32;;;;;;;;;;;12.30;99.90;;;;;;5094447;27;19931;-76
2023/05/05 02:45:58;;;;;;;;;;;12.30;99.90;;;;;;5096467;27;20466;-76
2023/05/05 02:48:24;;;;;;;;;;;12.30;99.90;;;;;;5095485;27;19936;-76
2023/05/05 02:50:49;;;;;;;;;;;12.20;99.90;;;;;;5095367;27;19953;-76
2023/05/05 02:53:15;;;;;;;;;;;12.30;99.90;;;;;;5095637;27;20383;-76
2023/05/05 02:55:46;;;;;;;;;;;12.40;99.90;;;;;;5097392;27;19934;-76
2023/05/05 02:58:27;;;;;;;;;;;12.30;99.90;;;;;;5096495;27;19924;-76
2023/05/05 03:01:02;;;;;;;;;;;12.30;99.90;;;;;;5116778;27;19934;-76
2023/05/05 03:03:39;;;;;;;;;;;12.40;99.90;;;;;;5094143;27;20437;-75
2023/05/05 03:06:08;;;;;;;;;;;12.30;99.90;;;;;;5096570;27;19930;-76
2023/05/05 03:08:37;;;;;;;;;;;12.50;99.90;;;;;;5093217;28;19931;-76
2023/05/05 03:11:02;;;;;;;;;;;12.40;99.90;;;;;;5066865;27;19980;-76
2023/05/05 03:13:28;;;;;;;;;;;12.30;99.90;;;;;;5098494;27;19974;-76
2023/05/05 03:15:54;;;;;;;;;;;12.30;99.90;;;;;;5096311;27;19933;-75
2023/05/05 03:18:22;;;;;;;;;;;12.30;99.90;;;;;;5099798;27;19924;-76
2023/05/05 03:20:47;;;;;;;;;;;12.30;99.90;;;;;;5101219;27;20668;-76
2023/05/05 03:23:13;;;;;;;;;;;12.30;99.90;;;;;;5098895;27;20452;-76
2023/05/05 03:25:43;;;;;;;;;;;12.20;99.90;;;;;;5098397;27;19968;-76
2023/05/05 03:28:08;;;;;;;;;;;12.30;99.90;;;;;;5098757;27;19931;-76
2023/05/05 03:30:34;;;;;;;;;;;12.30;99.90;;;;;;5101187;27;20316;-76
2023/05/05 03:32:59;;;;;;;;;;;12.20;99.90;;;;;;5098053;27;20229;-76
2023/05/05 03:35:25;;;;;;;;;;;12.20;99.90;;;;;;5099827;27;19929;-76
2023/05/05 03:37:50;;;;;;;;;;;12.20;99.90;;;;;;5080987;27;19927;-76
2023/05/05 03:40:16;;;;;;;;;;;12.30;99.90;;;;;;5094740;28;19927;-76
2023/05/05 03:42:41;;;;;;;;;;;12.30;99.90;;;;;;5098196;27;19927;-77
2023/05/05 03:45:07;;;;;;;;;;;12.30;99.90;;;;;;5110918;27;19939;-77
2023/05/05 03:47:33;;;;;;;;;;;12.30;99.90;;;;;;5096782;28;20014;-76
2023/05/05 03:49:59;;;;;;;;;;;12.30;99.90;;;;;;5095735;27;19923;-77
2023/05/05 03:52:25;;;;;;;;;;;12.20;99.90;;;;;;5090426;27;19927;-75
2023/05/05 03:54:50;;;;;;;;;;;12.30;99.90;;;;;;5099716;28;19935;-75
2023/05/05 03:57:16;;;;;;;;;;;12.30;99.90;;;;;;5097685;28;19931;-73
2023/05/05 03:59:42;;;;;;;;;;;12.30;99.90;;;;;;5097972;28;19931;-76
2023/05/05 04:02:07;;;;;;;;;;;12.30;99.90;;;;;;5098665;28;19931;-76
2023/05/05 04:04:33;;;;;;;;;;;12.40;99.90;;;;;;5099973;27;19931;-76
2023/05/05 04:06:59;;;;;;;;;;;12.40;99.90;;;;;;5096611;27;19934;-75
2023/05/05 04:09:24;;;;;;;;;;;12.50;99.90;;;;;;5099307;27;20409;-75
2023/05/05 04:11:50;;;;;;;;;;;12.50;99.90;;;;;;5095466;27;19938;-76
2023/05/05 04:14:15;;;;;;;;;;;12.50;99.90;;;;;;5102914;27;20300;-77
2023/05/05 04:16:41;;;;;;;;;;;12.30;99.90;;;;;;5102354;27;20010;-76
2023/05/05 04:19:06;;;;;;;;;;;12.20;99.90;;;;;;5100228;27;19934;-76
2023/05/05 04:21:32;;;;;;;;;;;12.20;99.90;;;;;;5086261;27;19927;-76
2023/05/05 04:23:57;;;;;;;;;;;12.30;99.90;;;;;;5098910;27;19931;-76
2023/05/05 04:26:23;;;;;;;;;;;12.10;99.90;;;;;;5101635;27;19927;-77
2023/05/05 04:28:49;;;;;;;;;;;11.90;99.90;;;;;;5122242;27;19965;-76
2023/05/05 04:31:14;;;;;;;;;;;11.90;99.90;;;;;;5103395;27;19927;-76
2023/05/05 04:33:40;;;;;;;;;;;11.90;99.90;;;;;;5099749;27;20384;-76
2023/05/05 04:36:05;;;;;;;;;;;11.80;99.90;;;;;;5102015;27;19928;-75
2023/05/05 04:38:31;;;;;;;;;;;11.70;99.90;;;;;;5102456;27;19948;-75
2023/05/05 04:40:57;;;;;;;;;;;11.90;99.90;;;;;;5101606;27;19927;-75
2023/05/05 04:43:22;;;;;;;;;;;11.90;99.90;;;;;;5098463;27;19941;-76
2023/05/05 04:45:52;;;;;;;;;;;12.10;99.90;;;;;;5097305;27;19931;-75
2023/05/05 04:48:19;;;;;;;;;;;12.10;99.90;;;;;;5096213;27;19965;-75
2023/05/05 04:50:45;;;;;;;;;;;11.90;99.90;;;;;;5102080;27;19924;-74
2023/05/05 04:53:10;;;;;;;;;;;12.00;99.90;;;;;;5096505;27;20433;-75
2023/05/05 04:55:37;;;;;;;;;;;12.10;99.90;;;;;;5099508;27;20347;-75
2023/05/05 04:58:03;;;;;;;;;;;12.10;99.90;;;;;;5102651;27;19923;-75
2023/05/05 05:00:28;;;;;;;;;;;12.10;99.90;;;;;;5099065;27;20579;-75
2023/05/05 05:02:54;;;;;;;;;;;12.00;99.90;;;;;;5101827;28;20527;-74
2023/05/05 05:05:20;;;;;;;;;;;12.00;99.90;;;;;;5100666;28;19923;-75
2023/05/05 05:07:46;;;;;;;;;;;12.00;99.90;;;;;;5100506;28;22476;-75
2023/05/05 05:10:11;;;;;;;;;;;12.10;99.90;;;;;;5100749;28;19924;-75
2023/05/05 05:12:37;;;;;;;;;;;12.00;99.90;;;;;;5116523;28;20564;-76
2023/05/05 05:15:03;;;;;;;;;;;12.00;99.90;;;;;;5100840;28;20463;-76
2023/05/05 05:17:29;;;;;;;;;;;12.00;99.90;;;;;;5096235;28;19927;-75
2023/05/05 05:19:55;;;;;;;;;;;12.00;99.90;;;;;;5102363;27;19966;-75
2023/05/05 05:22:21;;;;;;;;;;;12.00;99.90;;;;;;5115842;28;20023;-75
2023/05/05 05:24:46;;;;;;;;;;;12.10;99.90;;;;;;5100246;28;20017;-75
2023/05/05 05:27:12;;;;;;;;;;;12.10;99.90;;;;;;5100327;28;19931;-75
2023/05/05 05:29:38;;;;;;;;;;;12.00;99.90;;;;;;5101268;28;19931;-75
2023/05/05 05:32:04;;;;;;;;;;;12.00;99.90;;;;;;5097016;27;19932;-75
2023/05/05 05:34:29;;;;;;;;;;;12.00;99.90;;;;;;5097136;28;19928;-75
2023/05/05 05:36:55;;;;;;;;;;;12.00;99.90;;;;;;5118153;27;20030;-74
2023/05/05 05:39:20;;;;;;;;;;;12.10;99.90;;;;;;5121787;28;20370;-74
2023/05/05 05:41:46;;;;;;;;;;;12.10;99.90;;;;;;5102746;28;20017;-75
2023/05/05 05:44:11;;;;;;;;;;;12.10;99.90;;;;;;5102315;28;20285;-75
2023/05/05 05:46:37;;;;;;;;;;;12.10;99.90;;;;;;5096592;28;20423;-75
2023/05/05 05:49:02;;;;;;;;;;;12.40;99.90;;;;;;5098416;28;19938;-75
2023/05/05 05:51:29;;;;;;;;;;;12.90;99.90;;;;;;5103415;28;19924;-76
2023/05/05 05:53:54;;;;;;;;;;;12.90;99.90;;;;;;5103354;28;19927;-75
2023/05/05 05:56:20;;;;;;;;;;;12.70;99.90;;;;;;5099452;28;20044;-75
2023/05/05 05:58:47;;;;;;;;;;;13.10;99.90;;;;;;5102449;28;19969;-76
2023/05/05 06:01:13;;;;;;;;;;;14.10;99.90;;;;;;5100357;28;19934;-76
2023/05/05 06:03:38;;;;;;;;;;;14.50;99.90;;;;;;5050883;27;1802982;-75
2023/05/05 06:06:04;;;;;;;;;;;14.50;99.90;;;;;;5097762;27;19973;-76
2023/05/05 06:08:30;;;;;;;;;;;14.90;99.90;;;;;;5100669;27;20329;-76
2023/05/05 06:10:55;;;;;;;;;;;14.70;99.90;;;;;;5100417;27;19939;-76
2023/05/05 06:13:21;;;;;;;;;;;14.20;99.90;;;;;;5099900;27;19927;-75
2023/05/05 06:15:47;;;;;;;;;;;14.60;99.90;;;;;;5093802;27;19963;-75
2023/05/05 06:18:12;;;;;;;;;;;14.60;99.90;;;;;;5101974;27;19970;-75
2023/05/05 06:20:38;;;;;;;;;;;14.00;99.90;;;;;;5097454;27;20674;-76
2023/05/05 06:23:03;;;;;;;;;;;14.40;99.90;;;;;;5102180;27;19927;-76
2023/05/05 06:25:29;;;;;;;;;;;14.80;99.90;;;;;;5100839;27;20053;-76
2023/05/05 06:27:54;;;;;;;;;;;14.50;99.90;;;;;;5102280;27;19938;-76
2023/05/05 06:30:20;;;;;;;;;;;14.20;99.90;;;;;;5099744;27;20026;-76
2023/05/05 06:32:46;;;;;;;;;;;14.20;99.90;;;;;;5097259;27;19959;-76
2023/05/05 06:35:11;;;;;;;;;;;14.10;99.90;;;;;;5102956;27;19931;-76
2023/05/05 06:37:37;;;;;;;;;;;13.80;99.90;;;;;;5098775;27;19927;-76
2023/05/05 06:40:03;;;;;;;;;;;14.50;99.90;;;;;;5099531;27;20653;-76
2023/05/05 06:42:30;;;;;;;;;;;15.10;99.90;;;;;;5098449;27;19980;-76
2023/05/05 06:44:56;;;;;;;;;;;15.90;99.90;;;;;;5080938;27;19923;-76
2023/05/05 06:47:22;;;;;;;;;;;15.10;99.90;;;;;;5100167;27;19935;-76
2023/05/05 06:49:47;;;;;;;;;;;15.10;99.90;;;;;;5109922;27;19938;-75
2023/05/05 06:52:13;;;;;;;;;;;15.70;99.90;;;;;;5099841;27;19923;-76
2023/05/05 06:54:38;;;;;;;;;;;15.20;99.90;;;;;;5083881;27;20412;-76
2023/05/05 06:57:04;;;;;;;;;;;15.80;99.90;;;;;;5099992;27;19923;-76
2023/05/05 06:59:29;;;;;;;;;;;16.10;99.90;;;;;;5119011;27;19973;-76
2023/05/05 07:01:55;;;;;;;;;;;16.00;99.90;;;;;;5096205;27;20482;-76
2023/05/05 07:04:21;;;;;;;;;;;17.20;99.90;;;;;;5099221;27;19928;-76
2023/05/05 07:06:46;;;;;;;;;;;15.80;99.90;;;;;;5114730;27;19962;-76
2023/05/05 07:09:12;;;;;;;;;;;16.70;99.90;;;;;;5115775;27;20452;-76
2023/05/05 07:11:37;;;;;;;;;;;17.00;99.90;;;;;;5097780;27;19928;-76
2023/05/05 07:14:03;;;;;;;;;;;17.70;99.90;;;;;;5117394;27;19931;-76
2023/05/05 07:16:28;;;;;;;;;;;18.20;99.90;;;;;;5100832;27;20019;-76
2023/05/05 07:18:55;;;;;;;;;;;18.50;99.90;;;;;;5101458;27;19970;-76
2023/05/05 07:21:21;;;;;;;;;;;17.90;99.90;;;;;;5102675;27;19927;-76
2023/05/05 07:23:46;;;;;;;;;;;18.50;99.90;;;;;;5116605;27;20105;-76
2023/05/05 07:26:13;;;;;;;;;;;18.60;99.90;;;;;;5095637;27;19927;-76
2023/05/05 07:28:38;;;;;;;;;;;18.60;99.90;;;;;;5099848;28;19927;-76
2023/05/05 07:31:04;;;;;;;;;;;19.00;99.90;;;;;;5097820;27;20257;-75
2023/05/05 07:33:30;;;;;;;;;;;19.20;99.90;;;;;;5095909;27;19973;-74
2023/05/05 07:35:55;;;;;;;;;;;19.50;99.90;;;;;;5099174;27;20008;-76
2023/05/05 07:38:21;;;;;;;;;;;19.90;99.90;;;;;;5099776;27;20009;-76
2023/05/05 07:40:46;;;;;;;;;;;19.90;99.90;;;;;;5098315;27;19984;-76
2023/05/05 07:43:12;;;;;;;;;;;19.80;99.90;;;;;;5099994;28;19927;-76
2023/05/05 07:45:37;;;;;;;;;;;19.80;99.90;;;;;;5093486;28;19938;-76
2023/05/05 07:48:03;;;;;;;;;;;19.80;99.90;;;;;;5120205;27;20468;-76
2023/05/05 07:50:28;;;;;;;;;;;19.70;99.90;;;;;;5115852;27;19963;-76
2023/05/05 07:52:54;;;;;;;;;;;20.20;99.90;;;;;;5097265;27;19934;-76
2023/05/05 07:55:19;;;;;;;;;;;20.20;99.90;;;;;;5099847;28;19928;-76
2023/05/05 07:57:45;;;;;;;;;;;20.30;99.90;;;;;;5096988;28;20037;-76
2023/05/05 08:00:12;;;;;;;;;;;20.20;99.90;;;;;;5115678;28;19964;-76
2023/05/05 08:02:37;;;;;;;;;;;20.30;99.90;;;;;;5088386;28;19931;-77
2023/05/05 08:05:03;;;;;;;;;;;20.70;99.90;;;;;;5103818;28;19934;-76
2023/05/05 08:07:29;;;;;;;;;;;20.70;99.90;;;;;;5087760;28;19981;-77
2023/05/05 08:09:54;;;;;;;;;;;20.60;99.90;;;;;;5076592;28;19935;-77
2023/05/05 08:12:20;;;;;;;;;;;20.80;99.90;;;;;;5095154;28;20300;-76
2023/05/05 08:14:45;;;;;;;;;;;21.10;99.90;;;;;;5093673;28;20339;-76
2023/05/05 08:17:11;;;;;;;;;;;21.10;99.90;;;;;;5095146;28;19927;-76
2023/05/05 08:19:42;;;;;;;;;;;20.80;99.90;;;;;;5116141;28;19999;-77
2023/05/05 08:22:08;;;;;;;;;;;21.00;99.90;;;;;;5080055;28;19927;-77
2023/05/05 08:24:34;;;;;;;;;;;21.40;99.90;;;;;;5114591;28;19973;-77
2023/05/05 08:27:00;;;;;;;;;;;21.60;99.90;;;;;;5096715;28;19932;-76
2023/05/05 08:29:25;;;;;;;;;;;21.60;99.90;;;;;;5118675;27;19986;-76
2023/05/05 08:31:51;;;;;;;;;;;21.70;99.90;;;;;;5094725;27;19986;-77
2023/05/05 08:34:17;;;;;;;;;;;21.80;99.90;;;;;;5097317;28;19927;-77
2023/05/05 08:36:42;;;;;;;;;;;22.10;99.90;;;;;;5093990;28;19980;-77
2023/05/05 08:39:08;;;;;;;;;;;22.10;99.90;;;;;;5118472;28;19935;-77
2023/05/05 08:41:33;;;;;;;;;;;22.20;99.90;;;;;;5112478;28;20368;-77
2023/05/05 08:43:59;;;;;;;;;;;22.10;99.90;;;;;;5114528;28;20272;-78
2023/05/05 08:46:25;;;;;;;;;;;22.20;99.90;;;;;;5096605;28;19924;-77
2023/05/05 08:48:52;;;;;;;;;;;21.50;99.90;;;;;;5113372;28;19973;-77
2023/05/05 08:51:18;;;;;;;;;;;21.70;99.90;;;;;;5113400;28;20316;-77
2023/05/05 08:53:53;;;;;;;;;;;22.20;99.90;;;;;;5094849;28;19928;-77
2023/05/05 08:56:20;;;;;;;;;;;22.60;99.90;;;;;;5118202;27;19938;-76
2023/05/05 08:58:47;;;;;;;;;;;22.80;99.90;;;;;;5120712;27;20326;-76
2023/05/05 09:01:13;;;;;;;;;;;22.60;99.90;;;;;;5100854;27;19935;-77
2023/05/05 09:03:38;;;;;;;;;;;22.00;99.90;;;;;;5116413;27;19930;-76
2023/05/05 09:06:04;;;;;;;;;;;22.70;99.90;;;;;;5114122;27;20328;-77
2023/05/05 09:08:30;;;;;;;;;;;22.80;99.90;;;;;;5100304;27;20089;-78
2023/05/05 09:10:56;;;;;;;;;;;23.20;99.90;;;;;;5115760;27;19927;-78
2023/05/05 09:13:21;;;;;;;;;;;23.40;99.90;;;;;;5116417;27;20010;-77
2023/05/05 09:15:47;;;;;;;;;;;23.30;99.90;;;;;;5117642;27;20308;-78
2023/05/05 09:18:13;;;;;;;;;;;23.30;99.90;;;;;;5113535;27;20000;-78
2023/05/05 09:20:39;;;;;;;;;;;23.20;99.90;;;;;;5096386;27;20544;-77
2023/05/05 09:23:12;;;;;;;;;;;22.90;99.90;;;;;;5114733;27;19942;-78
2023/05/05 09:25:38;;;;;;;;;;;23.60;99.90;;;;;;5112016;27;20026;-78
2023/05/05 09:28:08;;;;;;;;;;;23.80;99.90;;;;;;5115738;27;20068;-78
2023/05/05 09:30:34;;;;;;;;;;;24.20;99.90;;;;;;5087355;27;19927;-78
2023/05/05 09:33:09;;;;;;;;;;;23.80;99.90;;;;;;5083628;27;20180;-78
2023/05/05 09:35:54;;;;;;;;;;;24.10;99.90;;;;;;5081832;27;19987;-78
2023/05/05 09:38:20;;;;;;;;;;;23.60;99.90;;;;;;5084264;27;20474;-78
2023/05/05 09:40:50;;;;;;;;;;;24.00;99.90;;;;;;5079235;27;19977;-78
2023/05/05 09:43:16;;;;;;;;;;;23.90;99.90;;;;;;5084567;27;20284;-77
2023/05/05 09:45:42;;;;;;;;;;;24.10;99.90;;;;;;5082694;27;20506;-78
2023/05/05 09:48:22;;;;;;;;;;;23.80;99.90;;;;;;5086146;27;20413;-78
2023/05/05 09:50:47;;;;;;;;;;;23.40;99.90;;;;;;5097436;27;19980;-78
2023/05/05 09:53:13;;;;;;;;;;;22.80;99.90;;;;;;5092752;27;19947;-78
2023/05/05 09:55:39;;;;;;;;;;;22.70;99.90;;;;;;5093249;27;20299;-79
2023/05/05 09:58:18;;;;;;;;;;;23.00;99.90;;;;;;5092294;27;19930;-78
2023/05/05 10:00:44;;;;;;;;;;;23.10;99.90;;;;;;5093657;27;20358;-79
2023/05/05 10:03:10;;;;;;;;;;;23.30;99.90;;;;;;5098302;27;19927;-78
2023/05/05 10:05:45;;;;;;;;;;;23.80;99.90;;;;;;5096260;27;19927;-78
2023/05/05 10:08:15;;;;;;;;;;;24.30;99.90;;;;;;5077100;27;19986;-77
2023/05/05 10:10:46;;;;;;;;;;;24.50;99.90;;;;;;5117282;27;20322;-79
2023/05/05 10:13:12;;;;;;;;;;;24.70;99.90;;;;;;5087066;27;19928;-79
2023/05/05 10:15:40;;;;;;;;;;;24.40;99.90;;;;;;5096406;27;20300;-78
2023/05/05 10:18:06;;;;;;;;;;;24.50;99.90;;;;;;5098442;27;19951;-78
2023/05/05 10:20:32;;;;;;;;;;;24.10;99.90;;;;;;5098521;27;19966;-78
2023/05/05 10:22:58;;;;;;;;;;;23.90;99.90;;;;;;5118085;27;20458;-78
2023/05/05 10:25:27;;;;;;;;;;;24.30;99.90;;;;;;5116636;27;19927;-78
2023/05/05 10:27:54;;;;;;;;;;;24.60;99.90;;;;;;5098685;27;19934;-78
2023/05/05 10:30:25;;;;;;;;;;;25.30;99.90;;;;;;5095706;27;19969;-78
2023/05/05 10:32:59;;;;;;;;;;;25.00;99.90;;;;;;5114933;27;20313;-79
2023/05/05 10:35:27;;;;;;;;;;;24.60;99.90;;;;;;5118347;27;20014;-79
2023/05/05 10:37:53;;;;;;;;;;;25.30;99.90;;;;;;5115359;27;19924;-79
2023/05/05 10:40:20;;;;;;;;;;;25.40;99.90;;;;;;5116625;27;20486;-78
2023/05/05 10:42:47;;;;;;;;;;;24.90;99.90;;;;;;5096298;27;19923;-78
2023/05/05 10:45:12;;;;;;;;;;;25.00;99.90;;;;;;5090617;27;19927;-79
2023/05/05 10:47:39;;;;;;;;;;;25.40;99.90;;;;;;5099221;27;20338;-79
2023/05/05 10:50:05;;;;;;;;;;;25.10;99.90;;;;;;5102626;27;20421;-79
2023/05/05 10:52:42;;;;;;;;;;;24.40;99.90;;;;;;5118967;27;20297;-79
2023/05/05 10:55:19;;;;;;;;;;;24.60;99.90;;;;;;5100584;27;19924;-79
2023/05/05 10:57:48;;;;;;;;;;;25.10;99.90;;;;;;5095646;27;19977;-79
2023/05/05 11:00:32;;;;;;;;;;;24.60;99.90;;;;;;5098979;27;19930;-79
2023/05/05 11:03:16;;;;;;;;;;;24.50;99.90;;;;;;5101169;27;19935;-79
2023/05/05 11:06:01;;;;;;;;;;;24.70;99.90;;;;;;5101010;27;19927;-79
2023/05/05 11:08:26;;;;;;;;;;;24.90;99.90;;;;;;5119333;27;20284;-80
2023/05/05 11:10:52;;;;;;;;;;;24.00;99.90;;;;;;5102796;27;20054;-78
2023/05/05 11:13:18;;;;;;;;;;;23.80;99.90;;;;;;5098504;27;19942;-79
2023/05/05 11:15:43;;;;;;;;;;;22.80;99.90;;;;;;5099944;27;19927;-79
2023/05/05 11:18:27;;;;;;;;;;;23.40;99.90;;;;;;5117942;27;19932;-79
2023/05/05 11:20:59;;;;;;;;;;;23.70;99.90;;;;;;5119946;27;19927;-79
2023/05/05 11:23:25;;;;;;;;;;;23.80;99.90;;;;;;5097889;27;19927;-79
2023/05/05 11:25:51;;;;;;;;;;;23.70;99.90;;;;;;5082328;27;19934;-78
2023/05/05 11:28:23;;;;;;;;;;;23.40;99.90;;;;;;5095760;27;19928;-79
2023/05/05 11:30:55;;;;;;;;;;;23.30;99.90;;;;;;5094083;27;19932;-78
2023/05/05 11:33:30;;;;;;;;;;;23.60;99.90;;;;;;5090608;27;19997;-79
2023/05/05 11:36:05;;;;;;;;;;;23.40;99.90;;;;;;5094266;27;19938;-79
2023/05/05 11:38:31;;;;;;;;;;;23.10;99.90;;;;;;5097130;27;20011;-79
2023/05/05 11:41:02;;;;;;;;;;;22.90;99.90;;;;;;5098256;27;19999;-79
2023/05/05 11:43:28;;;;;;;;;;;22.70;99.90;;;;;;5091074;27;19928;-79
2023/05/05 11:46:29;;;;;;;;;;;22.40;99.90;;;;;;5096167;27;19935;-79
2023/05/05 11:48:55;;;;;;;;;;;22.20;99.90;;;;;;5020345;28;19932;-79
2023/05/05 11:51:21;;;;;;;;;;;22.00;99.90;;;;;;5081563;28;19934;-79
2023/05/05 11:53:47;;;;;;;;;;;21.70;99.90;;;;;;5093342;27;19923;-78
2023/05/05 11:56:18;;;;;;;;;;;21.60;99.90;;;;;;5093271;28;19999;-79
2023/05/05 11:58:44;;;;;;;;;;;21.50;99.90;;;;;;5118103;28;19980;-79
2023/05/05 12:01:10;;;;;;;;;;;21.20;99.90;;;;;;5099744;28;20380;-79
2023/05/05 12:03:36;;;;;;;;;;;21.10;99.90;;;;;;5111070;28;19923;-79
2023/05/05 12:06:02;;;;;;;;;;;21.10;99.90;;;;;;5111494;27;19941;-79
2023/05/05 12:08:33;;;;;;;;;;;21.00;99.90;;;;;;5115284;28;19932;-78
2023/05/05 12:11:06;;;;;;;;;;;20.80;99.90;;;;;;5086248;28;20375;-79
2023/05/05 12:13:31;;;;;;;;;;;20.60;99.90;;;;;;5080916;28;19923;-78
2023/05/05 12:16:11;;;;;;;;;;;20.50;99.90;;;;;;5078721;28;20169;-78
2023/05/05 12:18:37;;;;;;;;;;;20.30;99.90;;;;;;5084421;28;19981;-79
2023/05/05 12:21:16;;;;;;;;;;;20.10;99.90;;;;;;5082433;28;19927;-79
2023/05/05 12:23:41;;;;;;;;;;;20.00;99.90;;;;;;5082301;28;20382;-78
2023/05/05 12:26:07;;;;;;;;;;;19.80;99.90;;;;;;5079609;28;19927;-78
2023/05/05 12:28:45;;;;;;;;;;;20.00;99.90;;;;;;5084381;28;19946;-79
2023/05/05 12:31:10;;;;;;;;;;;20.20;99.90;;;;;;5097892;27;20053;-78
2023/05/05 12:33:40;;;;;;;;;;;20.20;99.90;;;;;;5085009;27;20783;-78
2023/05/05 12:36:06;;;;;;;;;;;20.40;99.90;;;;;;5103705;27;19931;-78
2023/05/05 12:38:32;;;;;;;;;;;20.40;99.90;;;;;;5088984;27;19939;-78
2023/05/05 12:40:57;;;;;;;;;;;20.40;99.90;;;;;;5094182;27;19931;-78
2023/05/05 12:43:33;;;;;;;;;;;20.40;99.90;;;;;;5105474;27;19923;-78
2023/05/05 12:46:02;;;;;;;;;;;20.50;99.90;;;;;;5088871;27;19931;-79
2023/05/05 12:48:28;;;;;;;;;;;20.70;99.90;;;;;;5071582;27;19931;-79
2023/05/05 12:50:53;;;;;;;;;;;20.80;99.90;;;;;;5082458;27;19931;-78
2023/05/05 12:53:19;;;;;;;;;;;20.80;99.90;;;;;;5078519;27;19932;-80
2023/05/05 12:55:45;;;;;;;;;;;20.80;99.90;;;;;;5090727;27;19933;-79
2023/05/05 12:58:12;;;;;;;;;;;20.80;99.90;;;;;;5083323;27;19924;-79
2023/05/05 13:00:37;;;;;;;;;;;20.60;99.90;;;;;;5107012;27;20901;-80
2023/05/05 13:03:04;;;;;;;;;;;19.50;99.90;;;;;;5093315;27;19928;-77
2023/05/05 13:05:36;;;;;;;;;;;18.40;99.90;;;;;;5090891;27;19982;-78
2023/05/05 13:08:02;;;;;;;;;;;17.70;99.90;;;;;;5108450;27;19923;-77
2023/05/05 13:10:29;;;;;;;;;;;17.30;99.90;;;;;;5090870;27;19951;-77
2023/05/05 13:12:56;;;;;;;;;;;17.20;99.90;;;;;;5088016;27;19984;-77
2023/05/05 13:15:22;;;;;;;;;;;16.90;99.90;;;;;;5088095;27;19927;-78
2023/05/05 13:17:48;;;;;;;;;;;16.70;99.90;;;;;;5113440;27;19935;-75
2023/05/05 13:20:14;;;;;;;;;;;16.50;99.90;;;;;;5099803;27;20396;-76
2023/05/05 13:22:39;;;;;;;;;;;16.30;99.90;;;;;;5103417;27;20018;-77
2023/05/05 13:25:06;;;;;;;;;;;16.20;99.90;;;;;;5104148;27;20053;-77
2023/05/05 13:27:31;;;;;;;;;;;16.10;99.90;;;;;;5100833;27;20036;-77
2023/05/05 13:29:57;;;;;;;;;;;16.00;99.90;;;;;;5100456;27;20260;-78
2023/05/05 13:32:22;;;;;;;;;;;15.90;99.90;;;;;;5096617;27;19935;-78
2023/05/05 13:34:48;;;;;;;;;;;15.90;99.90;;;;;;5101136;27;19935;-77
2023/05/05 13:37:14;;;;;;;;;;;15.80;99.90;;;;;;5080357;27;20007;-77
2023/05/05 13:39:39;;;;;;;;;;;15.30;99.90;;;;;;5102357;27;20015;-76
2023/05/05 13:42:05;;;;;;;;;;;15.50;99.90;;;;;;5096033;27;20392;-78
2023/05/05 13:44:30;;;;;;;;;;;15.40;99.90;;;;;;5117628;27;19935;-76
2023/05/05 13:46:56;;;;;;;;;;;15.30;99.90;;;;;;5086614;27;19931;-76
2023/05/05 13:49:22;;;;;;;;;;;15.20;99.90;;;;;;5096087;27;19978;-76
2023/05/05 13:51:48;;;;;;;;;;;15.10;99.90;;;;;;5080563;27;20026;-76
2023/05/05 13:54:13;;;;;;;;;;;15.00;99.90;;;;;;5099622;27;20412;-76
2023/05/05 13:56:39;;;;;;;;;;;14.90;99.90;;;;;;5088714;27;19931;-76
2023/05/05 13:59:05;;;;;;;;;;;14.90;99.90;;;;;;5088245;27;19979;-74
2023/05/05 14:01:30;;;;;;;;;;;14.80;99.90;;;;;;5097224;27;19975;-74
2023/05/05 14:03:56;;;;;;;;;;;14.70;99.90;;;;;;5102009;27;19924;-75
2023/05/05 14:06:21;;;;;;;;;;;14.60;99.90;;;;;;5100232;27;19935;-75
2023/05/05 14:08:47;;;;;;;;;;;14.60;99.90;;;;;;5097167;27;19934;-76
2023/05/05 14:11:12;;;;;;;;;;;14.60;99.90;;;;;;5099101;27;20027;-75
2023/05/05 14:13:38;;;;;;;;;;;14.50;99.90;;;;;;5119316;27;19927;-74
2023/05/05 14:16:05;;;;;;;;;;;14.40;99.90;;;;;;5099362;27;19923;-74